Time;durP1;ratioP1;P1;durP2;ratioP2;P2;SDS_P1;SDS_P2;PMS_P1;PMS_P2;Temp;Humidity;BMP_temperature;BMP_pressure;BME280_temperature;BME280_humidity;BME280_pressure;Samples;Min_cycle;Max_cycle;Signal;HPM_P1;HPM_P2
2022/07/03 00:01:55;;;;;;;3.97;3.57;;;19.20;50.20;;;;;;4842682;29;21015;-74
2022/07/03 00:04:22;;;;;;;5.80;5.20;;;19.10;51.80;;;;;;4829916;29;20482;-75
2022/07/03 00:06:49;;;;;;;10.20;7.13;;;19.00;53.70;;;;;;4842948;29;20529;-74
2022/07/03 00:09:16;;;;;;;9.50;6.17;;;19.00;54.20;;;;;;4832973;29;20434;-74
2022/07/03 00:11:44;;;;;;;8.90;6.77;;;19.00;54.60;;;;;;4840636;29;20927;-75
2022/07/03 00:14:11;;;;;;;12.13;6.40;;;18.90;54.90;;;;;;4844081;29;20437;-76
2022/07/03 00:16:38;;;;;;;7.50;6.10;;;18.90;55.00;;;;;;4844376;29;20509;-76
2022/07/03 00:19:07;;;;;;;8.30;5.50;;;18.90;55.50;;;;;;4834805;29;20550;-74
2022/07/03 00:21:37;;;;;;;7.30;5.20;;;18.80;56.00;;;;;;4826689;29;20478;-75
2022/07/03 00:24:08;;;;;;;7.30;5.27;;;18.80;57.50;;;;;;4842469;29;20441;-75
2022/07/03 00:26:39;;;;;;;6.10;4.57;;;18.70;57.40;;;;;;4842864;29;20893;-74
2022/07/03 00:29:09;;;;;;;11.30;4.20;;;18.70;57.40;;;;;;4843906;29;20434;-74
2022/07/03 00:31:36;;;;;;;7.37;4.90;;;18.70;57.40;;;;;;4829834;29;20454;-74
2022/07/03 00:34:03;;;;;;;5.77;4.77;;;18.70;57.40;;;;;;4826906;29;20442;-75
2022/07/03 00:36:34;;;;;;;4.77;3.57;;;18.60;57.30;;;;;;4838328;29;20471;-74
2022/07/03 00:39:02;;;;;;;4.27;3.17;;;18.60;58.10;;;;;;4834302;29;20459;-74
2022/07/03 00:41:30;;;;;;;3.37;2.60;;;18.60;58.60;;;;;;4830422;29;20494;-74
2022/07/03 00:43:57;;;;;;;4.10;2.27;;;18.60;58.50;;;;;;4833998;29;20448;-73
2022/07/03 00:46:27;;;;;;;2.07;1.87;;;18.60;57.30;;;;;;4826260;29;20489;-75
2022/07/03 00:48:56;;;;;;;2.30;2.10;;;18.60;57.30;;;;;;4838439;29;20437;-75
2022/07/03 00:51:24;;;;;;;2.60;2.33;;;18.60;57.80;;;;;;4851728;29;20526;-75
2022/07/03 00:53:53;;;;;;;4.30;2.27;;;18.50;58.30;;;;;;4845916;29;20445;-75
2022/07/03 00:56:24;;;;;;;3.00;2.53;;;18.50;58.80;;;;;;4845732;29;20486;-74
2022/07/03 00:58:54;;;;;;;2.83;2.23;;;18.50;58.70;;;;;;4837510;29;20516;-74
2022/07/03 01:01:22;;;;;;;1.97;1.80;;;18.50;58.20;;;;;;4828100;29;20471;-74
2022/07/03 01:04:00;;;;;;;2.50;2.00;;;18.40;58.40;;;;;;4832040;29;20500;-74
2022/07/03 01:06:31;;;;;;;2.50;2.10;;;18.40;58.50;;;;;;4853618;29;20800;-74
2022/07/03 01:09:03;;;;;;;2.40;2.20;;;18.40;59.20;;;;;;4854267;29;20455;-74
2022/07/03 01:11:35;;;;;;;1.90;1.80;;;18.40;58.70;;;;;;4842282;29;20437;-75
2022/07/03 01:14:15;;;;;;;3.33;1.90;;;18.50;58.30;;;;;;4842554;29;20860;-74
2022/07/03 01:16:54;;;;;;;3.00;2.03;;;18.50;58.00;;;;;;4842960;29;20450;-74
2022/07/03 01:19:38;;;;;;;2.17;1.80;;;18.50;58.30;;;;;;4842483;29;20477;-74
2022/07/03 01:22:30;;;;;;;2.30;1.80;;;18.40;58.50;;;;;;4840088;29;20494;-74
2022/07/03 01:25:12;;;;;;;6.07;2.00;;;18.50;58.70;;;;;;4832086;29;21000;-75
2022/07/03 01:27:57;;;;;;;3.10;2.47;;;18.40;59.30;;;;;;4842726;29;20456;-74
2022/07/03 01:30:25;;;;;;;5.93;2.00;;;18.40;59.70;;;;;;4827324;29;20468;-74
2022/07/03 01:32:58;;;;;;;2.30;2.10;;;18.20;60.50;;;;;;4824758;29;20455;-74
2022/07/03 01:35:29;;;;;;;2.00;1.90;;;18.20;61.20;;;;;;4824836;29;20500;-75
2022/07/03 01:37:57;;;;;;;2.63;2.43;;;18.10;62.20;;;;;;4826087;29;20438;-75
2022/07/03 01:40:27;;;;;;;2.90;2.00;;;18.10;62.20;;;;;;4846259;29;20801;-74
2022/07/03 01:42:57;;;;;;;2.40;2.20;;;18.00;62.70;;;;;;4847882;29;20479;-75
2022/07/03 01:45:27;;;;;;;2.50;2.07;;;18.00;63.00;;;;;;4847630;29;20468;-74
2022/07/03 01:47:54;;;;;;;4.10;2.33;;;17.90;63.10;;;;;;4847747;29;21146;-75
2022/07/03 01:50:22;;;;;;;2.63;1.90;;;17.90;63.60;;;;;;4847558;29;20803;-75
2022/07/03 01:52:50;;;;;;;3.07;2.17;;;17.90;63.90;;;;;;4846244;29;20459;-74
2022/07/03 01:55:19;;;;;;;2.00;1.80;;;17.80;64.50;;;;;;4845765;29;20462;-75
2022/07/03 01:57:48;;;;;;;3.60;2.10;;;17.70;65.40;;;;;;4831151;29;20433;-74
2022/07/03 02:00:18;;;;;;;2.30;2.00;;;17.80;65.50;;;;;;4831010;29;20458;-74
2022/07/03 02:02:55;;;;;;;2.13;2.03;;;17.80;65.70;;;;;;4846795;29;20955;-75
2022/07/03 02:05:32;;;;;;;1.97;1.87;;;17.80;64.80;;;;;;4847990;29;20460;-75
2022/07/03 02:08:07;;;;;;;2.70;2.03;;;17.70;64.70;;;;;;4835258;29;20466;-75
2022/07/03 02:10:38;;;;;;;2.17;1.97;;;17.70;65.70;;;;;;4834094;29;20448;-75
2022/07/03 02:13:12;;;;;;;2.17;1.93;;;17.70;65.70;;;;;;4839800;29;20460;-74
2022/07/03 02:15:44;;;;;;;1.80;1.70;;;17.70;65.70;;;;;;4830019;29;20484;-75
2022/07/03 02:18:18;;;;;;;7.50;1.70;;;17.70;65.70;;;;;;4846569;29;20434;-73
2022/07/03 02:20:53;;;;;;;3.57;2.03;;;17.70;65.70;;;;;;4847894;29;20429;-75
2022/07/03 02:23:25;;;;;;;3.00;2.00;;;17.80;64.80;;;;;;4846833;29;20480;-75
2022/07/03 02:25:55;;;;;;;3.37;1.90;;;17.80;64.40;;;;;;4833556;29;20486;-74
2022/07/03 02:28:30;;;;;;;2.67;2.07;;;17.80;64.70;;;;;;4830235;29;20434;-76
2022/07/03 02:31:03;;;;;;;1.87;1.77;;;17.80;64.40;;;;;;4829957;29;20463;-75
2022/07/03 02:33:31;;;;;;;2.83;2.10;;;17.70;65.50;;;;;;4837696;29;20434;-77
2022/07/03 02:35:59;;;;;;;3.70;2.00;;;17.60;65.60;;;;;;4838262;29;20491;-75
2022/07/03 02:38:27;;;;;;;2.57;2.20;;;17.50;65.50;;;;;;4844566;29;20467;-75
2022/07/03 02:41:01;;;;;;;3.03;2.27;;;17.50;65.60;;;;;;4832459;29;20471;-74
2022/07/03 02:43:42;;;;;;;1.90;1.80;;;17.50;65.50;;;;;;4849346;29;20489;-75
2022/07/03 02:49:19;;;;;;;3.13;2.43;;;17.40;66.50;;;;;;4849513;29;20476;-74
2022/07/03 02:51:49;;;;;;;2.90;1.80;;;17.40;67.40;;;;;;4851681;29;20430;-74
2022/07/03 02:54:16;;;;;;;2.33;1.77;;;17.40;66.80;;;;;;4851011;29;20899;-74
2022/07/03 02:56:55;;;;;;;3.57;2.53;;;17.40;66.40;;;;;;4853809;29;20446;-75
2022/07/03 02:59:32;;;;;;;2.50;1.63;;;17.40;66.90;;;;;;4857198;29;20426;-77
2022/07/03 03:02:08;;;;;;;2.03;1.93;;;17.50;66.00;;;;;;4846852;29;20443;-74
2022/07/03 03:04:38;;;;;;;5.53;1.90;;;17.50;65.50;;;;;;4865307;23;20979;-76
2022/07/03 03:07:11;;;;;;;2.13;2.03;;;17.50;65.50;;;;;;4862049;29;20420;-76
2022/07/03 03:09:43;;;;;;;2.63;1.87;;;17.50;65.50;;;;;;4855103;29;20461;-76
2022/07/03 03:12:12;;;;;;;4.60;2.20;;;17.50;66.10;;;;;;4856410;29;20511;-76
2022/07/03 03:14:41;;;;;;;2.50;2.27;;;17.40;66.20;;;;;;4852683;29;20483;-77
2022/07/03 03:17:14;;;;;;;3.17;2.07;;;17.30;67.60;;;;;;4844503;29;20463;-77
2022/07/03 03:19:46;;;;;;;1.83;1.73;;;17.30;67.60;;;;;;4843560;29;20508;-78
2022/07/03 03:22:28;;;;;;;3.67;2.00;;;17.30;68.10;;;;;;4847837;29;20421;-77
2022/07/03 03:24:56;;;;;;;2.97;2.13;;;17.20;68.90;;;;;;4875736;29;20485;-79
2022/07/03 03:27:23;;;;;;;5.03;1.87;;;17.20;70.00;;;;;;4878867;29;20557;-78
2022/07/03 03:29:50;;;;;;;1.90;1.80;;;17.20;69.60;;;;;;4879995;29;20474;-77
2022/07/03 03:32:19;;;;;;;3.37;2.00;;;17.10;70.00;;;;;;4864180;29;20468;-76
2022/07/03 03:34:47;;;;;;;2.13;2.00;;;17.00;70.60;;;;;;4863729;29;20513;-77
2022/07/03 03:37:15;;;;;;;2.37;2.20;;;17.00;71.00;;;;;;4863419;29;20507;-76
2022/07/03 03:39:43;;;;;;;2.97;1.90;;;17.00;71.10;;;;;;4863582;29;20778;-76
2022/07/03 03:42:12;;;;;;;1.77;1.67;;;17.00;71.40;;;;;;4856987;29;20434;-76
2022/07/03 03:44:39;;;;;;;2.10;2.00;;;16.90;71.70;;;;;;4842378;29;20449;-77
2022/07/03 03:47:06;;;;;;;2.40;2.00;;;16.90;72.80;;;;;;4842912;29;20469;-77
2022/07/03 03:49:35;;;;;;;2.40;2.03;;;16.90;72.90;;;;;;4842569;29;20536;-77
2022/07/03 03:52:02;;;;;;;2.57;2.30;;;16.90;73.30;;;;;;4844386;29;20467;-77
2022/07/03 03:54:29;;;;;;;1.80;1.70;;;17.00;72.80;;;;;;4861270;29;20478;-77
2022/07/03 03:56:55;;;;;;;2.27;1.90;;;17.10;72.20;;;;;;4861207;29;20458;-76
2022/07/03 03:59:23;;;;;;;2.63;2.27;;;17.10;71.70;;;;;;4860770;29;20466;-77
2022/07/03 04:01:49;;;;;;;2.17;1.90;;;17.20;71.50;;;;;;4860017;29;20482;-77
2022/07/03 04:04:18;;;;;;;2.23;2.13;;;17.30;71.20;;;;;;4841966;29;20512;-76
2022/07/03 04:06:47;;;;;;;5.33;1.90;;;17.40;70.80;;;;;;4846325;29;20523;-77
2022/07/03 04:09:13;;;;;;;2.30;2.10;;;17.40;69.90;;;;;;4842601;29;20438;-77
2022/07/03 04:11:40;;;;;;;2.20;2.03;;;17.50;69.90;;;;;;4860957;29;20474;-77
2022/07/03 04:14:07;;;;;;;3.00;2.10;;;17.60;69.10;;;;;;4862536;29;20458;-77
2022/07/03 04:16:35;;;;;;;3.43;2.13;;;17.70;68.50;;;;;;4863673;29;20444;-77
2022/07/03 04:19:02;;;;;;;1.77;1.67;;;17.80;67.80;;;;;;4853300;29;20494;-77
2022/07/03 04:21:29;;;;;;;2.27;2.17;;;17.90;67.20;;;;;;4859140;29;20432;-77
2022/07/03 04:23:57;;;;;;;2.03;1.83;;;17.80;66.80;;;;;;4868260;29;20538;-76
2022/07/03 04:26:24;;;;;;;2.03;1.93;;;17.80;66.80;;;;;;4865202;29;20429;-77
2022/07/03 04:28:50;;;;;;;1.83;1.73;;;17.80;67.20;;;;;;4867846;29;20473;-77
2022/07/03 04:31:17;;;;;;;2.00;1.80;;;17.80;67.60;;;;;;4870857;29;20526;-77
2022/07/03 04:33:44;;;;;;;3.50;2.60;;;17.80;67.50;;;;;;4862092;29;20447;-77
2022/07/03 04:36:11;;;;;;;2.33;1.80;;;17.80;68.00;;;;;;4868754;29;20466;-76
2022/07/03 04:38:38;;;;;;;2.57;2.40;;;17.80;68.40;;;;;;4866324;29;20436;-76
2022/07/03 04:41:06;;;;;;;2.50;2.40;;;18.00;67.30;;;;;;4866830;29;20458;-76
2022/07/03 04:43:33;;;;;;;2.03;1.93;;;18.00;67.60;;;;;;4856499;29;20490;-75
2022/07/03 04:46:00;;;;;;;2.50;2.30;;;18.10;66.90;;;;;;4846099;29;20543;-75
2022/07/03 04:48:29;;;;;;;2.77;2.57;;;18.20;66.60;;;;;;4862520;29;20448;-77
2022/07/03 04:50:56;;;;;;;2.30;2.20;;;18.30;66.20;;;;;;4863801;29;20937;-76
2022/07/03 04:53:23;;;;;;;7.60;2.20;;;18.50;66.40;;;;;;4872128;29;20463;-76
2022/07/03 04:55:50;;;;;;;2.27;2.17;;;18.80;64.40;;;;;;4875339;29;20503;-76
2022/07/03 04:58:18;;;;;;;2.23;2.13;;;19.10;62.90;;;;;;4852446;29;20540;-77
2022/07/03 05:00:46;;;;;;;1.80;1.70;;;19.50;60.40;;;;;;4861410;29;20465;-76
2022/07/03 05:03:13;;;;;;;1.80;1.70;;;20.10;58.70;;;;;;4844780;29;20499;-76
2022/07/03 05:05:40;;;;;;;1.93;1.80;;;21.00;54.70;;;;;;4845369;29;20470;-77
2022/07/03 05:08:07;;;;;;;3.53;1.90;;;22.20;50.20;;;;;;4864383;29;20668;-77
2022/07/03 05:10:33;;;;;;;1.57;1.47;;;23.30;46.00;;;;;;4861367;29;20428;-76
2022/07/03 05:13:00;;;;;;;2.10;1.90;;;24.20;42.70;;;;;;4865876;29;20454;-78
2022/07/03 05:15:29;;;;;;;1.80;1.70;;;24.40;42.30;;;;;;4881365;29;20460;-78
2022/07/03 05:17:55;;;;;;;1.60;1.50;;;24.90;40.30;;;;;;4881362;29;20428;-78
2022/07/03 05:20:27;;;;;;;1.73;1.47;;;25.60;38.60;;;;;;4871777;29;21038;-76
2022/07/03 05:22:55;;;;;;;1.83;1.60;;;26.10;36.90;;;;;;4865666;29;20466;-79
2022/07/03 05:25:22;;;;;;;3.03;2.03;;;26.20;36.50;;;;;;4851621;29;20461;-77
2022/07/03 05:27:52;;;;;;;2.03;1.93;;;25.90;37.40;;;;;;4863931;29;20598;-78
2022/07/03 05:30:20;;;;;;;1.60;1.50;;;26.40;35.90;;;;;;4863126;29;20443;-78
2022/07/03 05:32:48;;;;;;;1.90;1.70;;;26.60;35.10;;;;;;4870149;29;20421;-77
2022/07/03 05:35:15;;;;;;;1.70;1.60;;;26.90;34.50;;;;;;4867158;29;20486;-77
2022/07/03 05:37:43;;;;;;;1.50;1.40;;;27.20;34.70;;;;;;4866329;29;20830;-76
2022/07/03 05:40:11;;;;;;;2.67;1.50;;;27.60;33.70;;;;;;4866563;29;20443;-77
2022/07/03 05:42:38;;;;;;;1.80;1.70;;;28.20;32.40;;;;;;4873905;29;20431;-76
2022/07/03 05:45:06;;;;;;;1.50;1.40;;;28.00;32.60;;;;;;4877532;29;20547;-75
2022/07/03 05:47:32;;;;;;;2.70;1.50;;;28.50;31.20;;;;;;4878504;29;20446;-76
2022/07/03 05:50:01;;;;;;;2.00;1.80;;;28.60;30.70;;;;;;4880493;29;20439;-75
2022/07/03 05:52:28;;;;;;;1.60;1.50;;;28.60;30.40;;;;;;4878303;29;20462;-76
2022/07/03 05:54:54;;;;;;;2.03;1.93;;;28.90;29.60;;;;;;4877784;29;20482;-76
2022/07/03 05:57:21;;;;;;;2.07;1.40;;;28.50;30.30;;;;;;4878176;29;20467;-76
2022/07/03 05:59:48;;;;;;;1.47;1.40;;;28.50;30.60;;;;;;4882675;29;20493;-76
2022/07/03 06:02:15;;;;;;;1.80;1.70;;;28.90;29.60;;;;;;4871103;29;20457;-76
2022/07/03 06:04:42;;;;;;;1.93;1.40;;;28.80;29.60;;;;;;4871992;29;20519;-77
2022/07/03 06:07:10;;;;;;;1.50;1.40;;;29.00;29.40;;;;;;4884919;29;20463;-76
2022/07/03 06:09:37;;;;;;;1.57;1.47;;;29.00;29.80;;;;;;4883221;29;20515;-76
2022/07/03 06:12:04;;;;;;;1.53;1.50;;;28.90;29.30;;;;;;4884998;29;20466;-76
2022/07/03 06:14:31;;;;;;;2.50;1.63;;;28.70;29.50;;;;;;4883696;29;20517;-76
2022/07/03 06:16:58;;;;;;;1.80;1.70;;;28.40;29.70;;;;;;4864656;29;20455;-76
2022/07/03 06:19:24;;;;;;;1.40;1.30;;;28.20;30.10;;;;;;4869742;29;20471;-76
2022/07/03 06:21:51;;;;;;;4.47;1.77;;;28.20;30.10;;;;;;4884261;29;20462;-75
2022/07/03 06:24:19;;;;;;;2.43;1.33;;;28.40;29.70;;;;;;4883228;29;20524;-76
2022/07/03 06:26:46;;;;;;;1.30;1.30;;;28.30;29.50;;;;;;4885172;29;20442;-76
2022/07/03 06:29:13;;;;;;;1.57;1.47;;;28.40;29.60;;;;;;4884684;29;20443;-76
2022/07/03 06:31:40;;;;;;;1.87;1.77;;;28.20;29.90;;;;;;4884872;29;20481;-75
2022/07/03 06:34:06;;;;;;;2.17;1.67;;;28.20;29.90;;;;;;4880185;29;20461;-76
2022/07/03 06:36:33;;;;;;;2.10;1.60;;;28.40;29.40;;;;;;4879756;29;20426;-75
2022/07/03 06:39:00;;;;;;;5.20;1.70;;;28.40;29.30;;;;;;4878745;29;20480;-76
2022/07/03 06:41:28;;;;;;;1.87;1.40;;;28.50;29.10;;;;;;4879125;29;20538;-75
2022/07/03 06:43:55;;;;;;;1.70;1.23;;;28.50;28.60;;;;;;4883480;29;20513;-77
2022/07/03 06:46:22;;;;;;;3.53;1.10;;;28.20;29.20;;;;;;4873582;29;20466;-76
2022/07/03 06:48:49;;;;;;;1.50;1.40;;;28.10;29.40;;;;;;4855186;29;20864;-77
2022/07/03 06:51:16;;;;;;;2.37;2.10;;;28.10;29.60;;;;;;4858509;29;20438;-77
2022/07/03 06:53:42;;;;;;;1.83;1.40;;;27.80;29.90;;;;;;4859973;29;20464;-74
2022/07/03 06:56:09;;;;;;;4.33;1.80;;;27.70;29.90;;;;;;4861168;29;20449;-73
2022/07/03 06:58:37;;;;;;;1.77;1.67;;;27.50;30.10;;;;;;4863565;29;20528;-74
2022/07/03 07:01:04;;;;;;;1.67;1.57;;;27.40;29.90;;;;;;4862886;29;20469;-73
2022/07/03 07:03:31;;;;;;;1.60;1.50;;;27.60;29.70;;;;;;4859261;29;20817;-74
2022/07/03 07:05:58;;;;;;;2.50;1.60;;;27.70;29.90;;;;;;4862909;29;20489;-74
2022/07/03 07:08:25;;;;;;;1.70;1.60;;;27.10;30.00;;;;;;4863111;29;20435;-73
2022/07/03 07:10:52;;;;;;;2.20;2.10;;;26.30;31.30;;;;;;4861307;29;20442;-75
2022/07/03 07:13:18;;;;;;;2.33;1.43;;;25.80;32.50;;;;;;4861539;29;20540;-73
2022/07/03 07:15:46;;;;;;;1.70;1.47;;;25.60;33.10;;;;;;4855363;29;20461;-73
2022/07/03 07:18:13;;;;;;;2.27;1.37;;;25.40;33.40;;;;;;4854298;29;20451;-73
2022/07/03 07:20:40;;;;;;;3.27;1.50;;;25.20;33.20;;;;;;4857673;29;20481;-73
2022/07/03 07:23:07;;;;;;;2.83;1.60;;;25.00;33.10;;;;;;4864022;29;20475;-74
2022/07/03 07:25:34;;;;;;;3.60;1.50;;;24.90;33.30;;;;;;4883368;29;20483;-74
2022/07/03 07:28:01;;;;;;;1.87;1.50;;;24.80;34.00;;;;;;4869632;29;20462;-74
2022/07/03 07:30:28;;;;;;;1.50;1.40;;;24.80;34.20;;;;;;4859500;29;20541;-74
2022/07/03 07:32:56;;;;;;;1.60;1.50;;;24.80;34.00;;;;;;4856679;29;20491;-74
2022/07/03 07:35:23;;;;;;;4.50;1.57;;;24.70;33.50;;;;;;4854630;29;20873;-75
2022/07/03 07:37:49;;;;;;;1.30;1.20;;;24.70;34.30;;;;;;4858704;29;20443;-74
2022/07/03 07:40:16;;;;;;;3.43;1.80;;;24.60;34.50;;;;;;4863426;29;20984;-74
2022/07/03 07:42:43;;;;;;;1.50;1.40;;;24.60;34.70;;;;;;4859866;29;20462;-73
2022/07/03 07:45:10;;;;;;;2.20;1.40;;;24.60;34.20;;;;;;4850284;29;20538;-74
2022/07/03 07:47:37;;;;;;;1.40;1.30;;;24.60;33.60;;;;;;4863025;29;20516;-75
2022/07/03 07:50:07;;;;;;;1.33;1.23;;;24.70;32.80;;;;;;4878490;29;20459;-74
2022/07/03 07:52:34;;;;;;;1.30;1.20;;;24.70;32.80;;;;;;4869824;29;20929;-74
2022/07/03 07:55:01;;;;;;;1.40;1.10;;;24.80;32.90;;;;;;4856017;29;20482;-74
2022/07/03 07:57:35;;;;;;;3.03;1.30;;;24.90;33.00;;;;;;4851086;29;20532;-75
2022/07/03 08:00:06;;;;;;;1.83;1.47;;;25.00;33.10;;;;;;4864545;29;20449;-75
2022/07/03 08:05:37;;;;;;;3.43;1.20;;;25.10;33.10;;;;;;4847052;29;20469;-75
2022/07/03 08:08:08;;;;;;;3.67;2.03;;;25.20;31.30;;;;;;4871666;29;20446;-77
2022/07/03 08:10:40;;;;;;;2.13;1.33;;;25.10;31.10;;;;;;4868602;29;20891;-77
2022/07/03 08:13:07;;;;;;;1.50;1.07;;;25.30;31.30;;;;;;4849964;29;20456;-77
2022/07/03 08:15:34;;;;;;;1.90;0.97;;;25.20;30.40;;;;;;4843408;29;20522;-76
2022/07/03 08:18:01;;;;;;;1.47;1.37;;;25.30;30.40;;;;;;4843644;29;20462;-77
2022/07/03 08:20:30;;;;;;;1.30;1.20;;;25.40;30.30;;;;;;4852222;29;20462;-77
2022/07/03 08:22:57;;;;;;;10.10;1.77;;;25.50;30.80;;;;;;4861606;29;20474;-77
2022/07/03 08:25:24;;;;;;;2.03;1.27;;;25.60;30.70;;;;;;4855861;29;20502;-77
2022/07/03 08:27:51;;;;;;;2.10;1.30;;;25.70;30.40;;;;;;4845366;29;20952;-77
2022/07/03 08:30:19;;;;;;;1.53;1.43;;;25.90;30.10;;;;;;4846182;29;20485;-77
2022/07/03 08:32:46;;;;;;;2.50;1.27;;;25.80;30.00;;;;;;4860659;29;21073;-76
2022/07/03 08:35:14;;;;;;;2.50;1.30;;;25.70;30.60;;;;;;4851512;29;20502;-77
2022/07/03 08:37:42;;;;;;;3.03;1.57;;;25.70;31.30;;;;;;4847843;29;20464;-78
2022/07/03 08:40:11;;;;;;;1.27;1.17;;;25.80;31.00;;;;;;4850092;29;20458;-77
2022/07/03 08:42:39;;;;;;;1.97;1.20;;;25.70;31.60;;;;;;4865483;29;20465;-77
2022/07/03 08:45:08;;;;;;;1.90;1.43;;;25.80;32.10;;;;;;4865651;29;20502;-78
2022/07/03 08:47:34;;;;;;;1.47;1.33;;;25.90;32.10;;;;;;4864358;29;20827;-77
2022/07/03 08:50:03;;;;;;;2.00;1.27;;;26.00;29.90;;;;;;4864770;29;20466;-78
2022/07/03 08:52:31;;;;;;;1.63;1.13;;;26.00;29.40;;;;;;4866260;29;20771;-76
2022/07/03 08:54:59;;;;;;;3.03;1.20;;;26.10;29.90;;;;;;4865352;29;20934;-76
2022/07/03 08:57:28;;;;;;;1.30;1.20;;;26.20;29.00;;;;;;4864490;29;20451;-78
2022/07/03 08:59:55;;;;;;;1.73;1.23;;;26.30;27.70;;;;;;4862141;29;20819;-77
2022/07/03 09:02:23;;;;;;;1.10;1.00;;;26.40;27.30;;;;;;4865103;29;20437;-77
2022/07/03 09:04:50;;;;;;;1.53;1.10;;;26.50;26.40;;;;;;4874892;24;20566;-74
2022/07/03 09:07:20;;;;;;;4.17;1.13;;;26.60;26.40;;;;;;4860685;29;21000;-75
2022/07/03 09:09:47;;;;;;;0.93;0.93;;;26.60;25.90;;;;;;4860842;29;20813;-75
2022/07/03 09:12:15;;;;;;;1.00;1.00;;;26.70;25.80;;;;;;4861179;29;20958;-75
2022/07/03 09:14:42;;;;;;;1.80;1.40;;;26.80;25.30;;;;;;4861485;29;20490;-76
2022/07/03 09:17:10;;;;;;;2.50;1.00;;;26.90;25.30;;;;;;4860580;29;20475;-76
2022/07/03 09:19:41;;;;;;;1.73;0.97;;;26.90;24.70;;;;;;4863970;29;20447;-76
2022/07/03 09:22:20;;;;;;;1.90;1.00;;;26.80;25.30;;;;;;4864991;29;20437;-75
2022/07/03 09:24:47;;;;;;;1.53;1.10;;;26.90;25.30;;;;;;4864065;29;20504;-75
2022/07/03 09:27:18;;;;;;;1.10;1.10;;;27.10;25.40;;;;;;4863823;29;20466;-76
2022/07/03 09:29:52;;;;;;;1.13;0.87;;;27.20;25.50;;;;;;4867176;29;20473;-76
2022/07/03 09:32:24;;;;;;;2.57;1.17;;;27.30;25.30;;;;;;4865611;29;20793;-74
2022/07/03 09:34:50;;;;;;;1.20;1.10;;;27.50;24.90;;;;;;4862229;29;20468;-76
2022/07/03 09:37:29;;;;;;;1.67;1.10;;;27.40;23.40;;;;;;4861018;29;20954;-74
2022/07/03 09:39:58;;;;;;;1.57;1.00;;;27.40;24.40;;;;;;4870474;29;20507;-75
2022/07/03 09:42:27;;;;;;;2.17;1.10;;;27.40;24.70;;;;;;4875454;29;20473;-75
2022/07/03 09:44:55;;;;;;;3.40;1.23;;;27.40;24.80;;;;;;4877932;29;20538;-75
2022/07/03 09:47:24;;;;;;;1.67;1.27;;;27.40;24.80;;;;;;4878368;29;20495;-76
2022/07/03 09:49:54;;;;;;;4.80;1.00;;;27.60;24.60;;;;;;4879311;29;20494;-75
2022/07/03 09:52:33;;;;;;;1.50;1.00;;;27.90;23.60;;;;;;4875256;29;20457;-76
2022/07/03 09:55:01;;;;;;;0.90;0.90;;;27.90;21.80;;;;;;4869784;29;20987;-75
2022/07/03 09:57:30;;;;;;;1.93;0.77;;;27.80;23.60;;;;;;4864808;29;20821;-74
2022/07/03 10:00:15;;;;;;;3.33;1.07;;;27.80;22.50;;;;;;4866505;29;20465;-75
2022/07/03 10:02:53;;;;;;;0.90;0.90;;;27.90;21.70;;;;;;4868132;29;20796;-75
2022/07/03 10:05:21;;;;;;;3.93;0.97;;;28.00;23.00;;;;;;4869170;29;20471;-76
2022/07/03 10:07:53;;;;;;;3.53;1.33;;;28.10;22.60;;;;;;4871770;29;20470;-74
2022/07/03 10:10:21;;;;;;;4.77;1.07;;;28.20;22.40;;;;;;4868524;29;20774;-73
2022/07/03 10:12:51;;;;;;;1.40;1.30;;;28.20;20.90;;;;;;4867475;29;20465;-73
2022/07/03 10:15:19;;;;;;;2.20;0.93;;;28.30;21.60;;;;;;4865585;29;20475;-73
2022/07/03 10:17:49;;;;;;;2.10;1.60;;;28.30;21.80;;;;;;4865249;29;20466;-72
2022/07/03 10:20:24;;;;;;;7.30;1.90;;;28.10;21.70;;;;;;4864527;29;20464;-73
2022/07/03 10:22:51;;;;;;;3.50;1.00;;;27.90;20.80;;;;;;4864856;29;20530;-71
2022/07/03 10:25:18;;;;;;;1.97;1.00;;;27.80;20.90;;;;;;4863970;29;20487;-70
2022/07/03 10:27:46;;;;;;;2.77;1.00;;;27.90;22.00;;;;;;4864841;29;20469;-75
2022/07/03 10:30:16;;;;;;;2.03;0.80;;;28.00;21.60;;;;;;4867049;29;20529;-76
2022/07/03 10:32:45;;;;;;;2.30;1.17;;;27.80;22.00;;;;;;4864168;29;20536;-75
2022/07/03 10:35:14;;;;;;;0.90;0.90;;;27.80;22.40;;;;;;4863558;29;20493;-76
2022/07/03 10:37:53;;;;;;;1.17;1.00;;;28.00;22.00;;;;;;4867986;29;20439;-78
2022/07/03 10:46:11;;;;;;;0.90;0.90;;;27.70;21.50;;;;;;4859030;29;21004;-75
2022/07/03 10:49:03;;;;;;;1.07;0.87;;;27.80;21.10;;;;;;4863600;29;20460;-77
2022/07/03 10:51:31;;;;;;;2.33;1.37;;;27.90;21.60;;;;;;4868657;29;20429;-76
2022/07/03 10:54:17;;;;;;;0.90;0.90;;;28.20;22.60;;;;;;4864527;29;20507;-74
2022/07/03 10:57:09;;;;;;;0.83;0.83;;;28.50;22.00;;;;;;4863806;29;20427;-75
2022/07/03 11:00:16;;;;;;;21.63;1.77;;;28.70;22.10;;;;;;4874849;29;20415;-76
2022/07/03 11:02:46;;;;;;;1.60;1.07;;;28.80;21.40;;;;;;4883909;29;20462;-76
2022/07/03 11:05:20;;;;;;;1.23;1.07;;;29.00;20.90;;;;;;4884690;29;20504;-75
2022/07/03 11:08:07;;;;;;;3.57;1.30;;;29.10;19.90;;;;;;4883911;29;20456;-75
2022/07/03 11:10:41;;;;;;;3.10;1.07;;;29.10;20.40;;;;;;4882515;29;20474;-75
2022/07/03 11:13:16;;;;;;;2.60;0.70;;;28.90;20.20;;;;;;4874182;29;20468;-75
2022/07/03 11:15:45;;;;;;;2.17;1.00;;;28.70;20.50;;;;;;4863756;29;20599;-75
2022/07/03 11:18:38;;;;;;;2.73;0.93;;;28.80;20.50;;;;;;4864314;29;20790;-75
2022/07/03 11:21:25;;;;;;;1.10;0.80;;;28.50;20.10;;;;;;4853715;29;20440;-75
2022/07/03 11:24:34;;;;;;;0.93;0.80;;;28.60;20.80;;;;;;4864056;29;20464;-76
2022/07/03 11:27:23;;;;;;;4.27;0.87;;;28.70;21.60;;;;;;4868574;29;20522;-75
2022/07/03 11:29:52;;;;;;;2.80;0.90;;;28.70;21.40;;;;;;4875431;29;20457;-75
2022/07/03 11:32:49;;;;;;;1.17;1.07;;;28.90;20.80;;;;;;4875364;29;20431;-75
2022/07/03 11:35:45;;;;;;;0.83;0.83;;;28.80;20.50;;;;;;4865339;29;20449;-74
2022/07/03 11:38:14;;;;;;;1.80;0.87;;;28.80;20.20;;;;;;4863753;29;20433;-75
2022/07/03 11:40:43;;;;;;;2.03;0.97;;;28.90;19.70;;;;;;4868067;29;20557;-75
2022/07/03 11:43:11;;;;;;;2.33;0.97;;;29.00;19.50;;;;;;4871249;29;20430;-75
2022/07/03 11:45:39;;;;;;;0.80;0.80;;;29.20;19.60;;;;;;4866040;29;20494;-75
2022/07/03 11:48:10;;;;;;;1.60;1.50;;;29.40;19.30;;;;;;4865489;29;20437;-75
2022/07/03 11:50:39;;;;;;;2.57;1.17;;;29.20;19.90;;;;;;4864954;29;20431;-76
2022/07/03 11:53:27;;;;;;;1.87;1.00;;;29.40;20.00;;;;;;4866294;29;20545;-76
2022/07/03 11:55:56;;;;;;;1.40;0.97;;;29.40;19.80;;;;;;4864223;29;20497;-76
2022/07/03 11:58:24;;;;;;;2.37;1.10;;;29.10;20.10;;;;;;4862832;29;20467;-74
2022/07/03 12:00:52;;;;;;;2.70;1.43;;;29.20;21.00;;;;;;4865207;29;20546;-75
2022/07/03 12:03:24;;;;;;;1.33;1.00;;;29.40;21.00;;;;;;4864016;29;20479;-75
2022/07/03 12:05:56;;;;;;;5.13;0.90;;;29.70;20.10;;;;;;4866948;29;20504;-75
2022/07/03 12:08:30;;;;;;;1.47;0.97;;;29.60;19.30;;;;;;4868084;29;20936;-75
2022/07/03 12:11:00;;;;;;;1.30;1.00;;;29.60;19.40;;;;;;4863925;29;20471;-74
2022/07/03 12:13:27;;;;;;;5.00;0.90;;;29.30;19.40;;;;;;4862395;29;20558;-75
2022/07/03 12:15:55;;;;;;;0.80;0.80;;;29.10;20.30;;;;;;4862486;29;20483;-75
2022/07/03 12:18:22;;;;;;;2.80;0.90;;;29.10;19.80;;;;;;4865485;29;20465;-76
2022/07/03 12:20:49;;;;;;;1.43;0.73;;;29.10;19.60;;;;;;4867872;29;20553;-75
2022/07/03 12:23:15;;;;;;;4.33;1.10;;;29.30;19.80;;;;;;4866963;29;20817;-74
2022/07/03 12:25:44;;;;;;;1.10;1.00;;;29.20;20.10;;;;;;4883193;29;20468;-74
2022/07/03 12:28:11;;;;;;;4.53;0.90;;;28.90;20.60;;;;;;4878281;29;20465;-74
2022/07/03 12:30:39;;;;;;;5.20;1.00;;;28.90;20.60;;;;;;4876509;29;20446;-75
2022/07/03 12:33:07;;;;;;;1.80;0.90;;;28.90;21.00;;;;;;4874361;29;20462;-74
2022/07/03 12:35:34;;;;;;;1.63;0.93;;;29.10;20.70;;;;;;4875816;29;20939;-76
2022/07/03 12:38:01;;;;;;;1.90;0.90;;;29.40;20.80;;;;;;4885404;29;20458;-73
2022/07/03 12:40:28;;;;;;;2.30;1.30;;;29.80;20.90;;;;;;4895837;29;20528;-73
2022/07/03 12:42:58;;;;;;;1.07;0.97;;;29.90;20.40;;;;;;4891864;29;20437;-74
2022/07/03 12:45:26;;;;;;;0.70;0.70;;;30.10;19.90;;;;;;4889094;29;20495;-74
2022/07/03 12:48:01;;;;;;;1.40;0.83;;;30.20;18.60;;;;;;4892794;29;20472;-74
2022/07/03 12:50:42;;;;;;;2.60;0.70;;;30.20;18.60;;;;;;4878386;29;20453;-75
2022/07/03 12:53:09;;;;;;;1.53;1.00;;;30.40;18.70;;;;;;4869632;29;20469;-76
2022/07/03 12:55:37;;;;;;;2.00;0.93;;;30.50;18.80;;;;;;4861140;29;20474;-75
2022/07/03 13:01:00;;;;;;;0.80;0.80;;;30.40;18.70;;;;;;4863057;29;20559;-76
2022/07/03 13:03:28;;;;;;;5.13;1.10;;;30.10;18.60;;;;;;4862592;29;20451;-75
2022/07/03 13:05:55;;;;;;;2.60;1.00;;;30.10;19.10;;;;;;4862786;29;20513;-75
2022/07/03 13:08:23;;;;;;;3.47;1.03;;;30.10;19.90;;;;;;4862154;29;20461;-74
2022/07/03 13:10:56;;;;;;;2.00;1.30;;;30.20;19.70;;;;;;4860878;29;20483;-76
2022/07/03 13:13:25;;;;;;;1.90;1.17;;;30.40;19.70;;;;;;4862540;29;20453;-76
2022/07/03 13:15:52;;;;;;;1.40;1.23;;;30.50;19.60;;;;;;4861530;29;20480;-75